createdAt,value
2019-04-29T00:02:11.229Z,101483.81
2019-04-29T00:04:39.503Z,101493.07
2019-04-29T00:07:08.804Z,101494.98
2019-04-29T00:09:37.161Z,101499.36
2019-04-29T00:12:05.545Z,101503.08
2019-04-29T00:14:35.084Z,101493.81
2019-04-29T00:17:14.284Z,101500.23
2019-04-29T00:19:44.529Z,101493.45
2019-04-29T00:22:13.096Z,101497.22
2019-04-29T00:24:41.377Z,101496.11
2019-04-29T00:27:09.687Z,101494.17
2019-04-29T00:29:37.988Z,101490.55
2019-04-29T00:32:06.671Z,101496.95
2019-04-29T00:34:35.292Z,101498.95
2019-04-29T00:37:21.362Z,101500.83
2019-04-29T00:40:07.470Z,101497.77
2019-04-29T00:42:37.441Z,101497.38
2019-04-29T00:45:07.089Z,101492.53
2019-04-29T00:47:35.692Z,101500.73
2019-04-29T00:50:06.158Z,101496.55
2019-04-29T00:52:34.450Z,101493.04
2019-04-29T00:55:13.563Z,101499.56
2019-04-29T00:57:42.212Z,101505.92
2019-04-29T01:00:12.518Z,101502.95
2019-04-29T01:02:41.224Z,101502.39
2019-04-29T01:05:09.599Z,101493.52
2019-04-29T01:07:37.888Z,101502.18
2019-04-29T01:10:06.616Z,101506.44
2019-04-29T01:12:35.496Z,101497.56
2019-04-29T01:15:05.895Z,101499.08
2019-04-29T01:17:34.459Z,101496.11
2019-04-29T01:20:02.753Z,101503.33
2019-04-29T01:22:31.512Z,101502.23
2019-04-29T01:25:00.103Z,101497.95
2019-04-29T01:27:30.049Z,101500.56
2019-04-29T01:29:59.737Z,101500.30
2019-04-29T01:32:28.062Z,101505.25
2019-04-29T01:34:56.515Z,101499.55
2019-04-29T01:37:26.627Z,101500.85
2019-04-29T01:39:59.579Z,101502.01
2019-04-29T01:42:29.523Z,101503.64
2019-04-29T01:44:57.811Z,101501.94
2019-04-29T01:47:26.132Z,101499.09
2019-04-29T01:49:54.423Z,101498.81
2019-04-29T01:52:22.739Z,101501.52
2019-04-29T01:54:51.289Z,101502.67
2019-04-29T01:57:19.889Z,101505.59
2019-04-29T01:59:48.456Z,101505.80
2019-04-29T02:02:16.760Z,101509.61
2019-04-29T02:04:45.071Z,101507.73
2019-04-29T02:07:13.441Z,101513.33
2019-04-29T02:09:58.171Z,101515.11
2019-04-29T02:12:26.457Z,101517.09
2019-04-29T02:14:54.771Z,101515.70
2019-04-29T02:17:23.049Z,101522.69
2019-04-29T02:19:51.350Z,101522.17
2019-04-29T02:22:33.121Z,101528.63
2019-04-29T02:25:03.070Z,101533.97
2019-04-29T02:27:31.637Z,101537.42
2019-04-29T02:29:59.931Z,101537.30
2019-04-29T02:32:28.322Z,101538.37
2019-04-29T02:34:56.640Z,101535.00
2019-04-29T02:37:26.569Z,101539.13
2019-04-29T02:39:59.269Z,101539.95
2019-04-29T02:42:45.656Z,101533.45
2019-04-29T02:45:24.704Z,101533.65
2019-04-29T02:47:53.001Z,101531.63
2019-04-29T02:50:21.286Z,101525.72
2019-04-29T02:52:49.599Z,101529.48
2019-04-29T02:55:19.546Z,101526.86
2019-04-29T02:57:55.295Z,101527.98
2019-04-29T03:00:31.131Z,101528.73
2019-04-29T03:03:13.359Z,101532.06
2019-04-29T03:05:43.672Z,101530.03
2019-04-29T03:08:12.038Z,101529.73
2019-04-29T03:10:40.742Z,101530.95
2019-04-29T03:13:09.277Z,101530.56
2019-04-29T03:15:40.657Z,101527.03
2019-04-29T03:18:08.994Z,101537.48
2019-04-29T03:20:53.685Z,101531.23
2019-04-29T03:23:23.633Z,101529.56
2019-04-29T03:25:52.010Z,101530.51
2019-04-29T03:28:20.584Z,101525.36
2019-04-29T03:30:49.160Z,101527.89
2019-04-29T03:33:17.464Z,101520.05
2019-04-29T03:35:45.787Z,101525.84
2019-04-29T03:38:14.100Z,101530.53
2019-04-29T03:40:42.673Z,101532.03
2019-04-29T03:43:10.965Z,101531.17
2019-04-29T03:45:39.528Z,101538.65
2019-04-29T03:48:08.136Z,101533.73
2019-04-29T03:50:36.412Z,101536.61
2019-04-29T03:53:04.805Z,101540.28
2019-04-29T03:55:39.676Z,101547.29
2019-04-29T03:58:03.110Z,101541.39
2019-04-29T04:00:31.401Z,101541.02
2019-04-29T04:03:01.350Z,101548.86
2019-04-29T04:05:34.270Z,101550.75
2019-04-29T04:08:13.617Z,101545.80
2019-04-29T04:10:41.883Z,101548.87
2019-04-29T04:13:10.204Z,101547.69
2019-04-29T04:15:38.502Z,101544.20
2019-04-29T04:18:23.308Z,101549.90
2019-04-29T04:20:51.646Z,101545.52
2019-04-29T04:23:19.898Z,101549.35
2019-04-29T04:25:48.195Z,101549.88
2019-04-29T04:28:16.592Z,101553.89
2019-04-29T04:30:44.972Z,101561.36
2019-04-29T04:33:13.542Z,101566.67
2019-04-29T04:35:41.845Z,101555.55
2019-04-29T04:38:10.502Z,101566.65
2019-04-29T04:40:46.304Z,101560.48
2019-04-29T04:43:14.601Z,101557.31
2019-04-29T04:45:42.892Z,101556.17
2019-04-29T04:48:11.482Z,101561.56
2019-04-29T04:50:39.776Z,101553.89
2019-04-29T04:53:08.065Z,101557.62
2019-04-29T04:55:38.011Z,101556.87
2019-04-29T04:58:06.342Z,101559.20
2019-04-29T05:00:36.312Z,101559.56
2019-04-29T05:03:04.766Z,101567.66
2019-04-29T05:05:33.039Z,101559.69
2019-04-29T05:08:01.361Z,101569.52
2019-04-29T05:10:29.660Z,101570.14
2019-04-29T05:12:58.024Z,101581.28
2019-04-29T05:15:26.299Z,101582.73
2019-04-29T05:17:54.604Z,101589.45
2019-04-29T05:20:23.151Z,101597.84
2019-04-29T05:22:59.978Z,101598.05
2019-04-29T05:25:31.670Z,101602.06
2019-04-29T05:28:00.135Z,101591.45
2019-04-29T05:30:28.504Z,101593.50
2019-04-29T05:32:56.824Z,101595.83
2019-04-29T05:35:26.755Z,101602.79
2019-04-29T05:37:59.508Z,101606.39
2019-04-29T05:40:47.727Z,101615.25
2019-04-29T05:43:17.701Z,101615.34
2019-04-29T05:46:07.277Z,101617.97
2019-04-29T05:48:34.219Z,101618.23
2019-04-29T05:51:09.874Z,101622.78
2019-04-29T05:53:42.544Z,101625.66
2019-04-29T05:56:11.112Z,101630.57
2019-04-29T05:58:39.658Z,101630.14
2019-04-29T06:01:09.921Z,101636.05
2019-04-29T06:03:39.777Z,101632.64
2019-04-29T06:06:08.225Z,101625.42
2019-04-29T06:08:39.251Z,101628.34
2019-04-29T06:11:06.808Z,101632.52
2019-04-29T06:13:35.351Z,101634.81
2019-04-29T06:16:03.969Z,101638.09
2019-04-29T06:18:32.258Z,101637.39
2019-04-29T06:21:08.697Z,101639.95
2019-04-29T06:23:30.639Z,101637.66
2019-04-29T06:25:58.939Z,101638.28
2019-04-29T06:28:28.221Z,101640.66
2019-04-29T06:30:56.641Z,101646.15
2019-04-29T06:33:29.063Z,101644.67
2019-04-29T06:35:57.066Z,101654.81
2019-04-29T06:38:25.478Z,101660.52
2019-04-29T06:40:53.755Z,101659.89
2019-04-29T06:43:24.672Z,101661.56
2019-04-29T06:45:52.204Z,101660.93
2019-04-29T06:48:20.767Z,101659.75
2019-04-29T06:50:49.832Z,101658.44
2019-04-29T06:53:21.214Z,101659.61
2019-04-29T06:55:48.280Z,101665.22
2019-04-29T06:58:16.957Z,101668.31
2019-04-29T07:00:45.231Z,101665.69
2019-04-29T07:03:13.909Z,101664.80
2019-04-29T07:05:42.340Z,101670.50
2019-04-29T07:08:11.082Z,101667.45
2019-04-29T07:10:39.403Z,101673.44
2019-04-29T07:13:07.681Z,101664.45
2019-04-29T07:15:36.068Z,101668.09
2019-04-29T07:18:05.100Z,101665.15
2019-04-29T07:20:37.074Z,101668.76
2019-04-29T07:23:03.435Z,101660.44
2019-04-29T07:25:31.728Z,101664.36
2019-04-29T07:28:00.028Z,101667.39
2019-04-29T07:30:29.524Z,101663.48
2019-04-29T07:32:57.906Z,101666.64
2019-04-29T07:35:26.230Z,101669.58
2019-04-29T07:37:54.616Z,101664.17
2019-04-29T07:40:22.978Z,101661.21
2019-04-29T07:42:51.295Z,101664.00
2019-04-29T07:45:28.014Z,101669.35
2019-04-29T07:47:56.833Z,101676.92
2019-04-29T07:50:26.795Z,101676.60
2019-04-29T07:52:55.442Z,101677.59
2019-04-29T07:55:25.965Z,101679.75
2019-04-29T07:57:54.121Z,101678.05
2019-04-29T08:00:35.457Z,101678.82
2019-04-29T08:03:06.826Z,101676.12
2019-04-29T08:05:35.287Z,101671.60
2019-04-29T08:08:04.240Z,101672.77
2019-04-29T08:10:32.522Z,101669.30
2019-04-29T08:13:01.002Z,101665.41
2019-04-29T08:15:31.836Z,101666.55
2019-04-29T08:18:06.316Z,101657.70
2019-04-29T08:20:29.696Z,101658.64
2019-04-29T08:22:58.343Z,101658.85
2019-04-29T08:25:28.051Z,101657.80
2019-04-29T08:27:56.340Z,101660.16
2019-04-29T08:30:24.656Z,101661.91
2019-04-29T08:32:53.306Z,101662.84
2019-04-29T08:35:21.613Z,101662.12
2019-04-29T08:37:49.909Z,101660.77
2019-04-29T08:40:18.218Z,101663.03
2019-04-29T08:43:04.490Z,101669.67
2019-04-29T08:45:34.845Z,101676.38
2019-04-29T08:48:04.720Z,101669.92
2019-04-29T08:50:33.348Z,101672.95
2019-04-29T08:53:01.632Z,101674.23
2019-04-29T08:55:30.955Z,101660.37
2019-04-29T08:57:59.969Z,101666.20
2019-04-29T09:00:28.249Z,101658.55
2019-04-29T09:02:56.548Z,101658.55
2019-04-29T09:05:24.841Z,101658.39
2019-04-29T09:07:57.285Z,101661.94
2019-04-29T09:10:23.286Z,101661.02
2019-04-29T09:12:51.578Z,101652.98
2019-04-29T09:15:20.074Z,101653.91
2019-04-29T09:17:48.326Z,101650.77
2019-04-29T09:20:19.011Z,101650.36
2019-04-29T09:22:48.964Z,101649.41
2019-04-29T09:25:28.039Z,101653.58
2019-04-29T09:27:58.142Z,101651.75
2019-04-29T09:30:26.613Z,101647.94
2019-04-29T09:32:54.912Z,101646.73
2019-04-29T09:35:23.520Z,101638.27
2019-04-29T09:37:53.892Z,101639.08
2019-04-29T09:40:23.491Z,101634.85
2019-04-29T09:42:59.364Z,101644.56
2019-04-29T09:45:45.508Z,101636.87
2019-04-29T09:48:13.829Z,101637.69
2019-04-29T09:50:42.123Z,101642.63
2019-04-29T09:53:10.440Z,101638.82
2019-04-29T09:55:39.981Z,101632.88
2019-04-29T09:58:09.118Z,101632.91
2019-04-29T10:00:58.296Z,101628.45
2019-04-29T10:03:45.425Z,101637.33
2019-04-29T10:06:21.057Z,101634.84
2019-04-29T10:08:49.651Z,101641.19
2019-04-29T10:11:17.942Z,101632.08
2019-04-29T10:13:46.312Z,101638.16
2019-04-29T10:16:19.238Z,101630.98
2019-04-29T10:18:54.960Z,101631.62
2019-04-29T10:21:24.151Z,101637.31
2019-04-29T10:23:52.638Z,101633.23
2019-04-29T10:26:21.116Z,101627.94
2019-04-29T10:28:59.782Z,101620.56
2019-04-29T10:31:28.198Z,101620.97
2019-04-29T10:33:56.604Z,101623.30
2019-04-29T10:36:26.269Z,101623.17
2019-04-29T10:38:56.804Z,101620.34
2019-04-29T10:41:30.053Z,101612.84
2019-04-29T10:44:00.011Z,101619.67
2019-04-29T10:46:46.182Z,101613.84
2019-04-29T10:49:16.433Z,101614.34
2019-04-29T10:51:45.013Z,101614.20
2019-04-29T10:54:14.336Z,101609.03
2019-04-29T10:56:42.782Z,101611.04
2019-04-29T10:59:11.629Z,101599.91
2019-04-29T11:02:00.668Z,101598.56
2019-04-29T11:04:20.414Z,101602.72
2019-04-29T11:06:49.113Z,101603.23
2019-04-29T11:09:31.188Z,101600.38
2019-04-29T11:11:59.476Z,101599.20
2019-04-29T11:14:27.801Z,101588.94
2019-04-29T11:16:56.326Z,101587.28
2019-04-29T11:19:24.919Z,101591.25
2019-04-29T11:21:53.312Z,101592.75
2019-04-29T11:24:25.740Z,101592.59
2019-04-29T11:26:55.779Z,101592.59
2019-04-29T11:29:27.388Z,101587.75
2019-04-29T11:31:55.939Z,101578.31
2019-04-29T11:34:33.384Z,101588.08
2019-04-29T11:37:01.768Z,101575.11
2019-04-29T11:39:30.065Z,101583.58
2019-04-29T11:41:59.798Z,101575.25
2019-04-29T11:44:31.856Z,101579.23
2019-04-29T11:46:59.719Z,101569.37
2019-04-29T11:49:29.724Z,101568.24
2019-04-29T11:52:09.099Z,101565.59
2019-04-29T11:54:28.760Z,101559.77
2019-04-29T11:56:57.069Z,101563.48
2019-04-29T11:59:36.144Z,101564.95
2019-04-29T12:02:24.763Z,101564.74
2019-04-29T12:04:59.206Z,101558.94
2019-04-29T12:07:32.548Z,101558.11
2019-04-29T12:10:02.244Z,101565.94
2019-04-29T12:12:28.752Z,101549.83
2019-04-29T12:14:58.679Z,101548.22
2019-04-29T12:17:28.629Z,101555.42
2019-04-29T12:19:58.537Z,101553.61
2019-04-29T12:22:30.740Z,101542.34
2019-04-29T12:24:57.176Z,101548.33
2019-04-29T12:27:28.960Z,101523.08
2019-04-29T12:29:59.462Z,101532.39
2019-04-29T12:32:27.840Z,101530.72
2019-04-29T12:35:06.648Z,101528.40
2019-04-29T12:37:39.273Z,101523.75
2019-04-29T12:40:16.221Z,101527.58
2019-04-29T12:42:58.321Z,101523.08
2019-04-29T12:45:28.289Z,101517.48
2019-04-29T12:47:56.577Z,101515.16
2019-04-29T12:50:24.947Z,101514.32
2019-04-29T12:52:53.221Z,101509.17
2019-04-29T12:55:49.074Z,101512.29
2019-04-29T12:58:11.751Z,101500.28
2019-04-29T13:00:47.524Z,101503.34
2019-04-29T13:03:17.697Z,101511.44
2019-04-29T13:05:58.414Z,101503.05
2019-04-29T13:08:39.854Z,101497.78
2019-04-29T13:11:09.689Z,101492.63
2019-04-29T13:13:37.968Z,101490.63
2019-04-29T13:16:20.087Z,101489.80
2019-04-29T13:18:48.968Z,101484.84
2019-04-29T13:21:18.764Z,101486.29
2019-04-29T13:23:59.519Z,101483.98
2019-04-29T13:26:27.812Z,101475.38
2019-04-29T13:29:00.450Z,101482.01
2019-04-29T13:31:20.137Z,101480.21
2019-04-29T13:33:51.015Z,101486.86
2019-04-29T13:36:19.637Z,101489.05
2019-04-29T13:38:48.573Z,101477.44
2019-04-29T13:41:23.820Z,101477.75
2019-04-29T13:43:47.362Z,101471.74
2019-04-29T13:46:17.292Z,101472.00
2019-04-29T13:49:12.831Z,101466.81
2019-04-29T13:51:39.475Z,101470.06
2019-04-29T13:54:07.762Z,101460.48
2019-04-29T13:56:54.551Z,101458.98
2019-04-29T13:59:10.728Z,101457.84
2019-04-29T14:01:57.768Z,101454.84
2019-04-29T14:04:13.837Z,101460.67
2019-04-29T14:06:56.139Z,101458.09
2019-04-29T14:09:14.303Z,101458.56
2019-04-29T14:11:42.577Z,101458.57
2019-04-29T14:14:10.878Z,101456.92
2019-04-29T14:16:43.063Z,101451.14
2019-04-29T14:19:09.358Z,101449.81
2019-04-29T14:21:37.655Z,101443.55
2019-04-29T14:24:06.307Z,101445.32
2019-04-29T14:26:36.965Z,101450.66
2019-04-29T14:29:05.255Z,101446.84
2019-04-29T14:31:33.539Z,101441.00
2019-04-29T14:34:21.796Z,101442.52
2019-04-29T14:36:50.099Z,101443.19
2019-04-29T14:39:36.131Z,101436.10
2019-04-29T14:41:51.027Z,101439.92
2019-04-29T14:44:33.677Z,101442.58
2019-04-29T14:47:06.272Z,101437.75
2019-04-29T14:49:39.741Z,101441.07
2019-04-29T14:52:08.281Z,101447.55
2019-04-29T14:54:36.867Z,101442.24
2019-04-29T14:57:09.105Z,101444.92
2019-04-29T14:59:37.315Z,101445.58
2019-04-29T15:02:11.919Z,101441.93
2019-04-29T15:04:39.312Z,101443.77
2019-04-29T15:07:07.714Z,101445.27
2019-04-29T15:09:46.367Z,101447.92
2019-04-29T15:12:17.269Z,101450.41
2019-04-29T15:14:47.693Z,101448.89
2019-04-29T15:17:17.734Z,101452.66
2019-04-29T15:19:55.760Z,101456.28
2019-04-29T15:22:30.246Z,101457.78
2019-04-29T15:24:58.526Z,101456.09
2019-04-29T15:27:26.913Z,101456.09
2019-04-29T15:29:55.199Z,101459.74
2019-04-29T15:32:23.916Z,101450.95
2019-04-29T15:34:52.229Z,101456.59
2019-04-29T15:37:20.513Z,101454.77
2019-04-29T15:39:48.802Z,101456.91
2019-04-29T15:42:17.342Z,101456.91
2019-04-29T15:44:46.030Z,101459.69
2019-04-29T15:47:14.619Z,101450.52
2019-04-29T15:49:42.905Z,101457.75
2019-04-29T15:52:11.191Z,101458.13
2019-04-29T15:54:39.846Z,101451.50
2019-04-29T15:57:10.749Z,101447.23
2019-04-29T15:59:48.449Z,101445.88
2019-04-29T16:02:09.273Z,101442.81
2019-04-29T16:04:39.383Z,101445.95
2019-04-29T16:07:25.238Z,101448.28
2019-04-29T16:10:14.471Z,101438.68
2019-04-29T16:12:45.355Z,101445.62
2019-04-29T16:15:13.628Z,101446.27
2019-04-29T16:17:42.001Z,101448.88
2019-04-29T16:20:10.275Z,101446.87
2019-04-29T16:22:39.353Z,101449.12
2019-04-29T16:25:11.023Z,101448.44
2019-04-29T16:27:41.593Z,101445.46
2019-04-29T16:30:08.524Z,101445.09
2019-04-29T16:32:38.471Z,101448.14
2019-04-29T16:35:07.154Z,101458.78
2019-04-29T16:37:35.504Z,101461.59
2019-04-29T16:40:07.551Z,101461.27
2019-04-29T16:42:43.661Z,101460.80
2019-04-29T16:45:14.216Z,101460.19
2019-04-29T16:47:47.554Z,101460.49
2019-04-29T16:50:12.323Z,101455.17
2019-04-29T16:52:44.332Z,101449.71
2019-04-29T16:55:11.379Z,101451.70
2019-04-29T16:57:39.661Z,101450.84
2019-04-29T17:00:13.689Z,101456.00
2019-04-29T17:02:40.422Z,101443.42
2019-04-29T17:05:09.135Z,101444.74
2019-04-29T17:07:37.491Z,101447.09
2019-04-29T17:10:10.869Z,101445.11
2019-04-29T17:12:40.794Z,101447.59
2019-04-29T17:15:23.573Z,101442.01
2019-04-29T17:17:39.424Z,101440.41
2019-04-29T17:20:08.279Z,101446.50
2019-04-29T17:22:43.246Z,101445.95
2019-04-29T17:25:08.454Z,101443.26
2019-04-29T17:27:47.387Z,101448.91
2019-04-29T17:30:38.290Z,101441.66
2019-04-29T17:33:26.470Z,101446.41
2019-04-29T17:35:47.905Z,101450.81
2019-04-29T17:38:17.353Z,101443.34
2019-04-29T17:40:51.244Z,101441.84
2019-04-29T17:43:17.689Z,101434.88
2019-04-29T17:45:47.621Z,101423.40
2019-04-29T17:48:33.782Z,101425.05
2019-04-29T17:51:03.919Z,101430.98
2019-04-29T17:53:40.012Z,101436.58
2019-04-29T17:56:14.953Z,101442.27
2019-04-29T17:58:54.733Z,101447.89
2019-04-29T18:01:29.018Z,101447.63
2019-04-29T18:04:11.816Z,101445.67
2019-04-29T18:06:40.315Z,101452.16
2019-04-29T18:09:31.834Z,101449.64
2019-04-29T18:12:01.266Z,101459.37
2019-04-29T18:14:36.570Z,101458.94
2019-04-29T18:16:59.713Z,101469.29
2019-04-29T18:19:36.184Z,101471.60
2019-04-29T18:22:07.320Z,101474.07
2019-04-29T18:24:37.497Z,101476.52
2019-04-29T18:27:10.264Z,101475.77
2019-04-29T18:29:41.607Z,101476.20
2019-04-29T18:32:08.928Z,101484.49
2019-04-29T18:34:38.002Z,101485.66
2019-04-29T18:37:06.682Z,101480.12
2019-04-29T18:39:35.302Z,101486.52
2019-04-29T18:42:06.711Z,101483.09
2019-04-29T18:44:33.629Z,101489.04
2019-04-29T18:47:01.947Z,101495.31
2019-04-29T18:49:30.250Z,101490.98
2019-04-29T18:52:02.153Z,101495.31
2019-04-29T18:54:28.560Z,101500.11
2019-04-29T18:56:56.891Z,101497.64
2019-04-29T18:59:30.706Z,101499.36
2019-04-29T19:01:55.470Z,101491.17
2019-04-29T19:04:31.272Z,101498.07
2019-04-29T19:07:02.424Z,101499.89
2019-04-29T19:09:32.153Z,101506.36
2019-04-29T19:12:01.642Z,101520.41
2019-04-29T19:14:29.939Z,101512.31
2019-04-29T19:17:01.300Z,101511.35
2019-04-29T19:19:30.835Z,101517.41
2019-04-29T19:22:00.793Z,101513.55
2019-04-29T19:24:31.507Z,101516.92
2019-04-29T19:27:00.778Z,101515.77
2019-04-29T19:29:29.499Z,101521.47
2019-04-29T19:31:57.889Z,101523.12
2019-04-29T19:34:26.276Z,101532.65
2019-04-29T19:36:58.155Z,101529.30
2019-04-29T19:39:25.524Z,101527.86
2019-04-29T19:41:55.719Z,101525.77
2019-04-29T19:44:26.488Z,101531.54
2019-04-29T19:46:56.949Z,101531.87
2019-04-29T19:49:25.780Z,101532.37
2019-04-29T19:51:55.537Z,101532.50
2019-04-29T19:54:28.365Z,101531.55
2019-04-29T19:57:02.940Z,101532.53
2019-04-29T19:59:26.103Z,101533.55
2019-04-29T20:02:02.015Z,101535.23
2019-04-29T20:04:32.002Z,101532.31
2019-04-29T20:07:06.665Z,101531.87
2019-04-29T20:09:31.644Z,101536.55
2019-04-29T20:12:11.835Z,101532.70
2019-04-29T20:14:33.673Z,101536.55
2019-04-29T20:17:09.541Z,101535.62
2019-04-29T20:19:40.581Z,101534.45
2019-04-29T20:22:09.843Z,101538.91
2019-04-29T20:24:38.709Z,101533.13
2019-04-29T20:27:07.527Z,101537.15
2019-04-29T20:29:38.370Z,101542.02
2019-04-29T20:32:07.885Z,101541.06
2019-04-29T20:34:36.507Z,101534.95
2019-04-29T20:37:05.967Z,101537.23
2019-04-29T20:39:35.687Z,101536.55
2019-04-29T20:42:06.392Z,101535.08
2019-04-29T20:44:36.530Z,101538.64
2019-04-29T20:47:19.105Z,101538.48
2019-04-29T20:49:37.228Z,101535.34
2019-04-29T20:52:06.502Z,101536.67
2019-04-29T20:54:36.022Z,101540.30
2019-04-29T20:57:06.971Z,101532.37
2019-04-29T20:59:35.852Z,101533.91
2019-04-29T21:02:12.579Z,101529.52
2019-04-29T21:04:45.716Z,101527.66
2019-04-29T21:07:07.030Z,101528.20
2019-04-29T21:09:35.717Z,101532.81
2019-04-29T21:12:22.609Z,101526.48
2019-04-29T21:14:52.543Z,101521.97
2019-04-29T21:17:30.835Z,101521.05
2019-04-29T21:19:50.863Z,101519.89
2019-04-29T21:22:23.439Z,101519.89
2019-04-29T21:24:53.709Z,101524.19
2019-04-29T21:27:22.551Z,101523.23
2019-04-29T21:29:49.914Z,101516.42
2019-04-29T21:32:19.895Z,101515.44
2019-04-29T21:34:50.099Z,101514.73
2019-04-29T21:37:32.250Z,101515.70
2019-04-29T21:40:14.607Z,101515.03
2019-04-29T21:42:47.121Z,101523.72
2019-04-29T21:45:15.528Z,101526.81
2019-04-29T21:47:52.712Z,101523.72
2019-04-29T21:50:15.392Z,101520.44
2019-04-29T21:52:44.743Z,101520.09
2019-04-29T21:55:15.938Z,101528.51
2019-04-29T21:57:44.706Z,101523.47
2019-04-29T22:00:15.658Z,101519.02
2019-04-29T22:02:46.683Z,101520.61
2019-04-29T22:05:18.428Z,101521.44
2019-04-29T22:07:47.482Z,101517.48
2019-04-29T22:10:15.376Z,101518.31
2019-04-29T22:12:43.622Z,101515.48
2019-04-29T22:15:13.557Z,101520.95
2019-04-29T22:17:53.785Z,101513.19
2019-04-29T22:20:15.854Z,101514.02
2019-04-29T22:22:45.250Z,101511.87
2019-04-29T22:25:15.751Z,101513.67
2019-04-29T22:27:45.127Z,101511.37
2019-04-29T22:30:18.494Z,101514.23
2019-04-29T22:32:47.153Z,101511.44
2019-04-29T22:35:16.580Z,101514.02
2019-04-29T22:37:45.402Z,101507.20
2019-04-29T22:40:15.469Z,101513.80
2019-04-29T22:42:47.462Z,101508.23
2019-04-29T22:45:16.039Z,101506.92
2019-04-29T22:47:44.363Z,101508.95
2019-04-29T22:50:13.608Z,101506.52
2019-04-29T22:52:42.204Z,101513.30
2019-04-29T22:55:11.096Z,101513.95
2019-04-29T22:57:39.395Z,101507.63
2019-04-29T23:00:08.422Z,101509.49
2019-04-29T23:02:36.702Z,101512.74
2019-04-29T23:05:07.983Z,101509.16
2019-04-29T23:07:37.744Z,101510.81
2019-04-29T23:10:07.337Z,101514.43
2019-04-29T23:12:35.628Z,101508.65
2019-04-29T23:15:07.814Z,101511.48
2019-04-29T23:17:36.121Z,101511.48
2019-04-29T23:20:09.244Z,101508.97
2019-04-29T23:22:45.128Z,101507.80
2019-04-29T23:25:21.727Z,101500.45
2019-04-29T23:27:52.201Z,101496.49
2019-04-29T23:30:20.396Z,101506.33
2019-04-29T23:32:48.692Z,101504.89
2019-04-29T23:35:16.983Z,101506.70
2019-04-29T23:37:45.767Z,101506.75
2019-04-29T23:40:15.187Z,101499.94
2019-04-29T23:42:47.483Z,101501.26
2019-04-29T23:45:20.790Z,101503.78
2019-04-29T23:47:46.980Z,101501.20
2019-04-29T23:50:18.747Z,101491.14
2019-04-29T23:52:47.929Z,101497.86
2019-04-29T23:55:15.940Z,101492.95
2019-04-29T23:57:46.095Z,101494.27
